createdAt,value
2018-06-27T00:01:35.205Z,98.90
2018-06-27T00:04:03.565Z,98.60
2018-06-27T00:06:31.997Z,98.50
2018-06-27T00:09:00.326Z,98.60
2018-06-27T00:11:28.697Z,98.70
2018-06-27T00:13:57.088Z,99.00
2018-06-27T00:16:25.423Z,98.80
2018-06-27T00:18:54.567Z,98.90
2018-06-27T00:21:23.615Z,99.10
2018-06-27T00:23:51.953Z,98.90
2018-06-27T00:26:20.331Z,98.80
2018-06-27T00:28:48.688Z,99.10
2018-06-27T00:31:17.017Z,99.20
2018-06-27T00:33:45.914Z,98.80
2018-06-27T00:38:42.857Z,99.40
2018-06-27T00:41:11.246Z,99.10
2018-06-27T00:43:39.634Z,99.20
2018-06-27T00:51:04.251Z,99.40
2018-06-27T00:56:07.065Z,99.40
2018-06-27T00:58:35.412Z,99.70
2018-06-27T01:01:03.781Z,99.70
2018-06-27T01:03:32.211Z,99.30
2018-06-27T01:06:00.501Z,99.50
2018-06-27T01:08:28.894Z,99.60
2018-06-27T01:10:57.322Z,99.60
2018-06-27T01:13:25.612Z,99.90
2018-06-27T01:15:53.987Z,99.90
2018-06-27T01:18:22.294Z,99.90
2018-06-27T01:20:50.610Z,99.90
2018-06-27T01:23:18.957Z,99.90
2018-06-27T01:25:47.271Z,99.90
2018-06-27T01:28:16.289Z,99.90
2018-06-27T01:30:45.545Z,99.90
2018-06-27T01:33:14.306Z,99.90
2018-06-27T01:35:42.693Z,99.90
2018-06-27T01:38:11.018Z,99.90
2018-06-27T01:40:39.385Z,99.80
2018-06-27T01:43:07.771Z,99.90
2018-06-27T01:45:36.118Z,99.90
2018-06-27T01:48:04.574Z,99.90
2018-06-27T01:50:32.962Z,99.90
2018-06-27T01:53:02.306Z,99.90
2018-06-27T01:55:30.605Z,99.90
2018-06-27T01:57:58.959Z,99.90
2018-06-27T02:00:27.497Z,99.90
2018-06-27T02:02:55.892Z,99.90
2018-06-27T02:05:24.325Z,99.90
2018-06-27T02:07:52.676Z,99.90
2018-06-27T02:10:21.053Z,99.90
2018-06-27T02:12:49.360Z,99.90
2018-06-27T02:20:14.037Z,99.90
2018-06-27T02:22:42.425Z,99.90
2018-06-27T02:25:10.817Z,99.90
2018-06-27T02:27:39.872Z,99.90
2018-06-27T02:30:08.254Z,99.90
2018-06-27T02:32:36.750Z,99.90
2018-06-27T02:35:05.159Z,99.90
2018-06-27T02:37:34.402Z,99.90
2018-06-27T02:40:02.750Z,99.90
2018-06-27T02:42:31.090Z,99.90
2018-06-27T02:44:59.463Z,99.90
2018-06-27T02:47:27.946Z,99.90
2018-06-27T02:49:57.239Z,99.90
2018-06-27T02:52:25.653Z,99.90
2018-06-27T02:54:54.270Z,99.90
2018-06-27T02:57:22.589Z,99.90
2018-06-27T02:59:50.906Z,99.90
2018-06-27T03:02:19.328Z,99.90
2018-06-27T03:04:47.715Z,99.90
2018-06-27T03:07:16.015Z,99.90
2018-06-27T03:09:44.318Z,99.90
2018-06-27T03:12:12.977Z,99.90
2018-06-27T03:14:41.305Z,99.90
2018-06-27T03:17:09.663Z,99.90
2018-06-27T03:19:37.965Z,99.90
2018-06-27T03:22:06.486Z,99.90
2018-06-27T03:24:34.809Z,99.90
2018-06-27T03:31:59.360Z,99.90
2018-06-27T03:34:27.669Z,99.90
2018-06-27T03:36:56.306Z,99.90
2018-06-27T03:39:25.059Z,99.90
2018-06-27T03:41:53.422Z,99.90
2018-06-27T03:44:21.721Z,99.90
2018-06-27T03:46:50.897Z,99.90
2018-06-27T03:49:19.230Z,99.90
2018-06-27T03:54:16.253Z,99.90
2018-06-27T03:56:45.545Z,99.90
2018-06-27T03:59:13.905Z,99.90
2018-06-27T04:01:42.293Z,99.90
2018-06-27T04:04:10.637Z,99.90
2018-06-27T04:06:38.965Z,99.90
2018-06-27T04:09:11.653Z,99.90
2018-06-27T04:11:40.694Z,99.90
2018-06-27T04:14:08.993Z,99.90
2018-06-27T04:16:37.961Z,99.90
2018-06-27T04:19:06.485Z,99.90
2018-06-27T04:21:34.805Z,99.90
2018-06-27T04:24:03.237Z,99.90
2018-06-27T04:26:31.581Z,99.90
2018-06-27T04:29:00.006Z,99.90
2018-06-27T04:31:28.385Z,99.90
2018-06-27T04:33:56.741Z,99.90
2018-06-27T04:36:25.506Z,99.90
2018-06-27T04:41:22.004Z,99.90
2018-06-27T04:43:50.335Z,99.90
2018-06-27T04:48:46.749Z,99.90
2018-06-27T04:51:15.065Z,99.90
2018-06-27T04:53:43.788Z,99.90
2018-06-27T04:56:12.137Z,99.90
2018-06-27T04:58:40.484Z,99.90
2018-06-27T05:01:09.377Z,99.90
2018-06-27T05:03:37.721Z,99.90
2018-06-27T05:06:06.067Z,99.90
2018-06-27T05:08:34.433Z,99.90
2018-06-27T05:11:02.766Z,99.90
2018-06-27T05:13:31.166Z,99.90
2018-06-27T05:15:59.618Z,99.90
2018-06-27T05:18:28.005Z,99.90
2018-06-27T05:20:57.311Z,99.90
2018-06-27T05:23:25.665Z,99.90
2018-06-27T05:25:53.965Z,99.90
2018-06-27T05:28:22.331Z,99.90
2018-06-27T05:30:50.749Z,99.90
2018-06-27T05:33:19.154Z,99.90
2018-06-27T05:35:47.502Z,99.90
2018-06-27T05:38:15.882Z,99.90
2018-06-27T05:40:44.495Z,99.90
2018-06-27T05:43:12.910Z,99.90
2018-06-27T05:45:45.669Z,99.90
2018-06-27T05:48:13.990Z,99.90
2018-06-27T05:50:42.837Z,99.90
2018-06-27T05:53:11.290Z,99.90
2018-06-27T05:55:40.249Z,99.90
2018-06-27T05:58:08.668Z,99.90
2018-06-27T06:00:37.059Z,99.60
2018-06-27T06:03:05.466Z,99.20
2018-06-27T06:05:33.862Z,99.40
2018-06-27T06:08:02.230Z,99.00
2018-06-27T06:10:30.602Z,98.80
2018-06-27T06:12:59.593Z,99.00
2018-06-27T06:15:28.533Z,98.00
2018-06-27T06:17:57.337Z,97.80
2018-06-27T06:20:25.638Z,97.80
2018-06-27T06:22:53.973Z,97.30
2018-06-27T06:25:22.296Z,97.60
2018-06-27T06:27:50.573Z,97.20
2018-06-27T06:30:18.885Z,97.00
2018-06-27T06:32:47.185Z,97.00
2018-06-27T06:35:15.521Z,97.20
2018-06-27T06:37:44.104Z,97.30
2018-06-27T06:40:12.764Z,97.40
2018-06-27T06:42:41.049Z,97.70
2018-06-27T06:45:09.381Z,96.90
2018-06-27T06:47:38.400Z,96.70
2018-06-27T06:50:06.688Z,96.40
2018-06-27T06:52:35.745Z,96.60
2018-06-27T06:55:04.345Z,96.10
2018-06-27T06:57:33.259Z,96.40
2018-06-27T07:00:01.714Z,95.90
2018-06-27T07:02:30.021Z,95.30
2018-06-27T07:04:58.576Z,95.20
2018-06-27T07:07:27.129Z,94.90
2018-06-27T07:09:56.548Z,94.80
2018-06-27T07:12:25.873Z,94.80
2018-06-27T07:14:54.642Z,95.30
2018-06-27T07:17:23.337Z,95.20
2018-06-27T07:19:51.981Z,95.00
2018-06-27T07:22:20.333Z,93.80
2018-06-27T07:24:48.658Z,94.70
2018-06-27T07:27:16.949Z,94.50
2018-06-27T07:29:45.270Z,93.70
2018-06-27T07:32:14.422Z,93.90
2018-06-27T07:34:42.936Z,94.20
2018-06-27T07:39:39.285Z,95.30
2018-06-27T07:42:09.166Z,94.40
2018-06-27T07:47:05.856Z,94.30
2018-06-27T07:49:34.160Z,93.60
2018-06-27T07:52:03.929Z,94.30
2018-06-27T07:54:37.579Z,93.70
2018-06-27T07:57:05.904Z,94.40
2018-06-27T07:59:34.314Z,92.90
2018-06-27T08:02:02.693Z,93.20
2018-06-27T08:04:31.878Z,93.20
2018-06-27T08:07:00.212Z,92.70
2018-06-27T08:09:28.505Z,92.70
2018-06-27T08:11:56.850Z,92.50
2018-06-27T08:14:25.178Z,92.60
2018-06-27T08:16:53.508Z,91.80
2018-06-27T08:19:22.798Z,92.10
2018-06-27T08:21:51.705Z,91.30
2018-06-27T08:24:20.061Z,91.70
2018-06-27T08:26:48.556Z,91.50
2018-06-27T08:29:18.088Z,91.50
2018-06-27T08:31:46.371Z,90.90
2018-06-27T08:34:14.677Z,92.80
2018-06-27T08:36:43.005Z,92.50
2018-06-27T08:39:11.605Z,91.70
2018-06-27T08:41:40.400Z,90.30
2018-06-27T08:44:09.236Z,90.30
2018-06-27T08:46:39.058Z,90.60
2018-06-27T08:49:07.402Z,89.40
2018-06-27T08:51:38.781Z,87.70
2018-06-27T08:54:07.129Z,89.20
2018-06-27T08:56:35.574Z,88.00
2018-06-27T08:59:04.479Z,88.80
2018-06-27T09:01:33.467Z,90.10
2018-06-27T09:04:01.859Z,89.60
2018-06-27T09:06:31.453Z,87.90
2018-06-27T09:09:06.981Z,87.50
2018-06-27T09:11:35.824Z,88.80
2018-06-27T09:14:04.238Z,88.20
2018-06-27T09:16:33.028Z,87.00
2018-06-27T09:19:02.098Z,85.90
2018-06-27T09:21:42.949Z,87.80
2018-06-27T09:24:11.327Z,86.90
2018-06-27T09:26:39.832Z,85.90
2018-06-27T09:29:08.176Z,82.50
2018-06-27T09:31:36.982Z,84.50
2018-06-27T09:34:05.392Z,85.10
2018-06-27T09:36:33.794Z,85.80
2018-06-27T09:39:02.138Z,85.00
2018-06-27T09:43:58.786Z,79.80
2018-06-27T09:46:27.203Z,82.60
2018-06-27T09:48:55.586Z,81.50
2018-06-27T09:51:24.635Z,83.40
2018-06-27T09:53:54.110Z,82.90
2018-06-27T09:56:22.785Z,81.10
2018-06-27T09:58:51.741Z,81.90
2018-06-27T10:01:20.149Z,80.70
2018-06-27T10:03:48.597Z,82.90
2018-06-27T10:06:16.942Z,80.60
2018-06-27T10:08:45.274Z,80.70
2018-06-27T10:11:13.671Z,81.00
2018-06-27T10:13:42.022Z,81.30
2018-06-27T10:16:10.325Z,80.50
2018-06-27T10:18:38.621Z,82.30
2018-06-27T10:21:07.785Z,80.20
2018-06-27T10:23:36.650Z,80.90
2018-06-27T10:31:01.634Z,77.40
2018-06-27T10:33:29.982Z,77.50
2018-06-27T10:38:26.492Z,79.80
2018-06-27T10:40:54.878Z,78.90
2018-06-27T10:43:23.223Z,78.80
2018-06-27T10:45:51.539Z,75.50
2018-06-27T10:48:20.738Z,76.60
2018-06-27T10:50:49.111Z,74.70
2018-06-27T10:53:17.429Z,74.90
2018-06-27T10:55:45.757Z,74.60
2018-06-27T10:58:14.145Z,77.30
2018-06-27T11:00:42.542Z,78.00
2018-06-27T11:03:10.875Z,76.20
2018-06-27T11:05:40.509Z,73.80
2018-06-27T11:08:10.584Z,74.80
2018-06-27T11:10:38.949Z,74.20
2018-06-27T11:13:07.318Z,73.30
2018-06-27T11:18:03.766Z,72.50
2018-06-27T11:23:00.254Z,75.90
2018-06-27T11:25:28.646Z,77.40
2018-06-27T11:27:58.726Z,75.40
2018-06-27T11:30:27.103Z,74.30
2018-06-27T11:32:56.208Z,73.90
2018-06-27T11:35:26.339Z,73.10
2018-06-27T11:37:54.767Z,74.00
2018-06-27T11:40:23.193Z,73.50
2018-06-27T11:42:51.546Z,71.90
2018-06-27T11:45:19.979Z,73.70
2018-06-27T11:47:48.873Z,71.40
2018-06-27T11:50:17.309Z,70.60
2018-06-27T11:52:45.818Z,70.40
2018-06-27T11:55:16.492Z,68.80
2018-06-27T11:57:45.557Z,69.10
2018-06-27T12:00:15.690Z,68.90
2018-06-27T12:02:44.116Z,70.60
2018-06-27T12:05:12.461Z,67.50
2018-06-27T12:07:40.921Z,69.90
2018-06-27T12:10:09.365Z,69.70
2018-06-27T12:12:37.722Z,70.10
2018-06-27T12:15:06.415Z,72.30
2018-06-27T12:17:35.277Z,69.00
2018-06-27T12:20:25.704Z,70.50
2018-06-27T12:22:54.154Z,71.50
2018-06-27T12:25:22.815Z,67.90
2018-06-27T12:27:51.858Z,67.40
2018-06-27T12:32:53.046Z,67.40
2018-06-27T12:35:22.106Z,68.80
2018-06-27T12:37:50.969Z,70.30
2018-06-27T12:40:19.349Z,71.00
2018-06-27T12:42:48.286Z,71.80
2018-06-27T12:45:16.620Z,70.50
2018-06-27T12:47:44.965Z,71.20
2018-06-27T12:50:13.391Z,68.50
2018-06-27T12:52:41.813Z,69.00
2018-06-27T12:55:12.046Z,68.20
2018-06-27T12:57:41.082Z,69.10
2018-06-27T13:00:09.983Z,70.90
2018-06-27T13:02:38.318Z,70.40
2018-06-27T13:05:07.850Z,67.40
2018-06-27T13:07:36.294Z,69.90
2018-06-27T13:10:05.951Z,69.70
2018-06-27T13:12:34.354Z,69.50
2018-06-27T13:15:02.798Z,70.90
2018-06-27T13:17:31.141Z,69.00
2018-06-27T13:19:59.498Z,69.10
2018-06-27T13:22:27.845Z,70.60
2018-06-27T13:24:57.154Z,66.80
2018-06-27T13:27:25.576Z,69.00
2018-06-27T13:29:54.002Z,68.40
2018-06-27T13:32:22.362Z,69.50
2018-06-27T13:34:50.763Z,68.30
2018-06-27T13:37:19.129Z,68.00
2018-06-27T13:39:47.538Z,64.90
2018-06-27T13:42:16.095Z,66.80
2018-06-27T13:44:44.437Z,68.10
2018-06-27T13:47:13.952Z,65.60
2018-06-27T13:49:42.837Z,68.30
2018-06-27T13:54:39.573Z,68.20
2018-06-27T13:59:36.955Z,67.60
2018-06-27T14:02:05.425Z,64.20
2018-06-27T14:04:34.602Z,64.30
2018-06-27T14:07:03.029Z,64.10
2018-06-27T14:09:32.012Z,64.10
2018-06-27T14:12:00.476Z,66.80
2018-06-27T14:14:29.006Z,70.20
2018-06-27T14:16:57.543Z,67.40
2018-06-27T14:19:25.987Z,65.90
2018-06-27T14:21:54.533Z,68.00
2018-06-27T14:24:22.998Z,67.10
2018-06-27T14:26:51.567Z,65.20
2018-06-27T14:29:20.906Z,67.10
2018-06-27T14:31:49.707Z,66.20
2018-06-27T14:34:18.092Z,65.70
2018-06-27T14:36:46.532Z,63.60
2018-06-27T14:39:16.713Z,65.40
2018-06-27T14:41:46.178Z,65.40
2018-06-27T14:44:15.154Z,65.90
2018-06-27T14:49:14.005Z,66.30
2018-06-27T14:51:42.590Z,66.50
2018-06-27T14:54:11.490Z,67.80
2018-06-27T14:56:39.903Z,68.30
2018-06-27T14:59:08.310Z,67.20
2018-06-27T15:01:36.890Z,66.20
2018-06-27T15:04:05.407Z,67.00
2018-06-27T15:09:02.080Z,65.40
2018-06-27T15:11:30.537Z,67.00
2018-06-27T15:14:00.845Z,65.60
2018-06-27T15:16:29.338Z,66.00
2018-06-27T15:18:57.906Z,66.00
2018-06-27T15:21:26.429Z,66.70
2018-06-27T15:23:54.946Z,68.00
2018-06-27T15:26:24.228Z,68.80
2018-06-27T15:28:53.961Z,69.00
2018-06-27T15:31:22.442Z,67.40
2018-06-27T15:33:51.092Z,67.90
2018-06-27T15:36:19.889Z,68.90
2018-06-27T15:38:48.358Z,68.40
2018-06-27T15:41:16.744Z,68.60
2018-06-27T15:49:34.357Z,67.80
2018-06-27T15:52:02.801Z,67.70
2018-06-27T15:54:31.195Z,67.70
2018-06-27T15:56:59.636Z,67.80
2018-06-27T15:59:28.051Z,67.60
2018-06-27T16:01:56.429Z,67.90
2018-06-27T16:04:24.864Z,68.70
2018-06-27T16:06:53.239Z,69.30
2018-06-27T16:09:22.665Z,67.80
2018-06-27T16:11:51.155Z,67.10
2018-06-27T16:14:19.569Z,67.90
2018-06-27T16:16:47.969Z,68.40
2018-06-27T16:19:16.358Z,69.00
2018-06-27T16:21:44.690Z,70.60
2018-06-27T16:24:13.085Z,70.90
2018-06-27T16:26:42.730Z,70.90
2018-06-27T16:29:11.162Z,71.30
2018-06-27T16:31:39.656Z,71.10
2018-06-27T16:36:36.323Z,70.50
2018-06-27T16:39:07.376Z,67.00
2018-06-27T16:41:35.798Z,68.80
2018-06-27T16:44:04.547Z,69.50
2018-06-27T16:46:32.910Z,71.40
2018-06-27T16:49:01.361Z,72.10
2018-06-27T16:51:29.962Z,72.80
2018-06-27T16:53:59.231Z,74.20
2018-06-27T16:56:27.628Z,72.80
2018-06-27T16:58:56.014Z,73.40
2018-06-27T17:01:24.649Z,73.40
2018-06-27T17:03:53.886Z,73.90
2018-06-27T17:06:22.826Z,73.30
2018-06-27T17:11:19.878Z,74.00
2018-06-27T17:16:16.342Z,74.00
2018-06-27T17:18:44.721Z,73.40
2018-06-27T17:21:13.137Z,74.70
2018-06-27T17:23:43.588Z,74.60
2018-06-27T17:26:14.343Z,74.90
2018-06-27T17:28:42.746Z,75.70
2018-06-27T17:31:11.104Z,76.70
2018-06-27T17:33:39.498Z,75.10
2018-06-27T17:36:08.021Z,76.00
2018-06-27T17:38:36.319Z,75.30
2018-06-27T17:41:04.652Z,75.60
2018-06-27T17:43:33.013Z,76.10
2018-06-27T17:46:01.318Z,76.30
2018-06-27T17:48:30.305Z,76.00
2018-06-27T17:50:58.607Z,75.80
2018-06-27T17:53:26.913Z,75.90
2018-06-27T17:55:55.212Z,75.70
2018-06-27T17:58:23.548Z,76.30
2018-06-27T18:00:51.845Z,76.50
2018-06-27T18:03:20.342Z,76.80
2018-06-27T18:05:49.667Z,76.30
2018-06-27T18:08:18.338Z,76.70
2018-06-27T18:10:47.206Z,77.20
2018-06-27T18:13:15.577Z,77.80
2018-06-27T18:15:44.015Z,78.50
2018-06-27T18:18:12.430Z,79.30
2018-06-27T18:20:40.772Z,78.90
2018-06-27T18:23:09.394Z,79.70
2018-06-27T18:25:37.773Z,79.10
2018-06-27T18:28:07.244Z,79.90
2018-06-27T18:30:35.684Z,79.80
2018-06-27T18:33:04.053Z,80.60
2018-06-27T18:35:33.593Z,80.50
2018-06-27T18:38:02.039Z,80.40
2018-06-27T18:40:30.623Z,80.60
2018-06-27T18:42:59.039Z,81.20
2018-06-27T18:45:29.485Z,81.40
2018-06-27T18:47:58.010Z,81.20
2018-06-27T18:50:26.995Z,81.70
2018-06-27T18:52:55.359Z,81.80
2018-06-27T18:55:24.435Z,82.50
2018-06-27T18:57:53.082Z,82.50
2018-06-27T19:02:49.972Z,83.50
2018-06-27T19:05:18.307Z,83.30
2018-06-27T19:07:48.053Z,83.60
2018-06-27T19:10:16.606Z,83.90
2018-06-27T19:12:45.567Z,84.30
2018-06-27T19:15:15.074Z,85.20
2018-06-27T19:17:43.453Z,85.80
2018-06-27T19:20:12.133Z,85.60
2018-06-27T19:22:40.464Z,86.10
2018-06-27T19:25:08.813Z,86.20
2018-06-27T19:27:37.154Z,87.20
2018-06-27T19:30:05.650Z,87.10
2018-06-27T19:32:34.049Z,89.30
2018-06-27T19:35:02.376Z,86.90
2018-06-27T19:37:30.742Z,88.20
2018-06-27T19:39:59.102Z,88.40
2018-06-27T19:42:28.109Z,88.20
2018-06-27T19:44:57.382Z,89.20
2018-06-27T19:47:28.394Z,89.00
2018-06-27T19:49:56.845Z,89.50
2018-06-27T19:52:25.396Z,90.00
2018-06-27T19:54:53.706Z,89.80
2018-06-27T19:57:22.018Z,90.00
2018-06-27T19:59:50.899Z,90.10
2018-06-27T20:02:19.634Z,90.20
2018-06-27T20:04:49.345Z,90.30
2018-06-27T20:07:21.774Z,90.60
2018-06-27T20:09:50.217Z,90.80
2018-06-27T20:17:15.594Z,91.40
2018-06-27T20:19:51.640Z,91.60
2018-06-27T20:22:23.535Z,91.70
2018-06-27T20:27:32.015Z,92.30
2018-06-27T20:30:00.459Z,92.40
2018-06-27T20:32:29.118Z,92.60
2018-06-27T20:34:57.493Z,92.70
2018-06-27T20:37:25.842Z,92.80
2018-06-27T20:39:54.990Z,93.20
2018-06-27T20:42:23.402Z,93.40
2018-06-27T20:44:52.316Z,93.40
2018-06-27T20:47:21.229Z,93.60
2018-06-27T20:52:17.931Z,94.20
2018-06-27T20:54:46.814Z,94.20
2018-06-27T20:57:15.434Z,94.20
2018-06-27T20:59:44.581Z,94.30
2018-06-27T21:02:14.437Z,94.20
2018-06-27T21:07:12.902Z,94.80
2018-06-27T21:09:42.143Z,94.90
2018-06-27T21:14:38.647Z,95.00
2018-06-27T21:22:03.993Z,95.60
2018-06-27T21:24:32.374Z,95.70
2018-06-27T21:27:00.689Z,95.60
2018-06-27T21:29:29.043Z,96.00
2018-06-27T21:31:57.346Z,95.80
2018-06-27T21:34:25.653Z,96.20
2018-06-27T21:36:53.968Z,96.20
2018-06-27T21:39:22.925Z,96.40
2018-06-27T21:41:51.477Z,96.50
2018-06-27T21:44:22.479Z,96.80
2018-06-27T21:46:51.227Z,96.70
2018-06-27T21:49:20.266Z,97.00
2018-06-27T21:51:48.633Z,96.70
2018-06-27T21:54:17.769Z,96.60
2018-06-27T21:56:46.194Z,96.80
2018-06-27T21:59:14.534Z,97.00
2018-06-27T22:04:11.594Z,96.90
2018-06-27T22:06:40.032Z,96.70
2018-06-27T22:09:09.820Z,97.10
2018-06-27T22:11:38.353Z,97.20
2018-06-27T22:14:06.678Z,97.00
2018-06-27T22:16:35.343Z,97.40
2018-06-27T22:21:31.850Z,97.90
2018-06-27T22:24:02.866Z,98.10
2018-06-27T22:26:33.522Z,98.10
2018-06-27T22:29:02.166Z,98.20
2018-06-27T22:31:31.286Z,98.00
2018-06-27T22:34:07.990Z,98.10
2018-06-27T22:36:36.322Z,98.30
2018-06-27T22:39:10.717Z,98.30
2018-06-27T22:44:08.482Z,98.40
2018-06-27T22:46:38.517Z,98.20
2018-06-27T22:49:06.837Z,98.00
2018-06-27T22:51:36.267Z,98.00
2018-06-27T22:54:04.706Z,98.10
2018-06-27T22:56:33.027Z,98.10
2018-06-27T22:59:01.342Z,98.40
2018-06-27T23:01:30.048Z,98.30
2018-06-27T23:04:00.511Z,98.30
2018-06-27T23:06:28.842Z,98.50
2018-06-27T23:13:55.013Z,98.30
2018-06-27T23:16:23.991Z,98.50
2018-06-27T23:18:57.264Z,98.30
2018-06-27T23:21:26.170Z,98.60
2018-06-27T23:23:55.356Z,98.70
2018-06-27T23:28:53.710Z,98.70
2018-06-27T23:31:22.066Z,98.70
2018-06-27T23:33:50.591Z,98.70
2018-06-27T23:36:19.298Z,98.90
2018-06-27T23:38:47.629Z,98.70
2018-06-27T23:41:15.925Z,98.70
2018-06-27T23:43:44.325Z,98.80
2018-06-27T23:48:49.517Z,99.20
2018-06-27T23:51:18.138Z,99.20
2018-06-27T23:53:46.454Z,99.40
2018-06-27T23:56:14.788Z,99.30
2018-06-27T23:58:43.113Z,99.40
